sensor_id;sensor_type;location;lat;lon;timestamp;pressure;altitude;pressure_sealevel;temperature;humidity
64739;BME280;51175;51.186;0.276;2023-02-01T00:00:17;102130.28;;;10.74;68.15
64739;BME280;51175;51.186;0.276;2023-02-01T00:00:47;102137.44;;;10.73;68.13
64739;BME280;51175;51.186;0.276;2023-02-01T00:01:18;102145.34;;;10.73;68.20
64739;BME280;51175;51.186;0.276;2023-02-01T00:01:48;102146.16;;;10.74;67.88
64739;BME280;51175;51.186;0.276;2023-02-01T00:02:19;102140.06;;;10.73;68.10
64739;BME280;51175;51.186;0.276;2023-02-01T00:02:49;102141.06;;;10.72;67.82
64739;BME280;51175;51.186;0.276;2023-02-01T00:03:19;102142.72;;;10.73;68.07
64739;BME280;51175;51.186;0.276;2023-02-01T00:03:50;102142.72;;;10.73;67.88
64739;BME280;51175;51.186;0.276;2023-02-01T00:04:21;102142.94;;;10.72;67.89
64739;BME280;51175;51.186;0.276;2023-02-01T00:04:51;102137.66;;;10.72;68.09
64739;BME280;51175;51.186;0.276;2023-02-01T00:05:22;102143.72;;;10.72;67.99
64739;BME280;51175;51.186;0.276;2023-02-01T00:05:59;102135.00;;;10.72;68.10
64739;BME280;51175;51.186;0.276;2023-02-01T00:06:29;102139.47;;;10.71;68.16
64739;BME280;51175;51.186;0.276;2023-02-01T00:07:00;102136.84;;;10.71;67.96
64739;BME280;51175;51.186;0.276;2023-02-01T00:07:31;102144.75;;;10.71;68.01
64739;BME280;51175;51.186;0.276;2023-02-01T00:08:01;102136.00;;;10.71;68.11
64739;BME280;51175;51.186;0.276;2023-02-01T00:08:32;102141.31;;;10.71;68.12
64739;BME280;51175;51.186;0.276;2023-02-01T00:09:02;102143.94;;;10.71;68.04
64739;BME280;51175;51.186;0.276;2023-02-01T00:09:33;102138.66;;;10.71;68.24
64739;BME280;51175;51.186;0.276;2023-02-01T00:10:05;102145.78;;;10.70;68.15
64739;BME280;51175;51.186;0.276;2023-02-01T00:10:36;102145.78;;;10.70;68.18
64739;BME280;51175;51.186;0.276;2023-02-01T00:11:08;102145.78;;;10.70;68.09
64739;BME280;51175;51.186;0.276;2023-02-01T00:11:39;102147.63;;;10.70;67.98
64739;BME280;51175;51.186;0.276;2023-02-01T00:12:10;102150.25;;;10.70;68.06
64739;BME280;51175;51.186;0.276;2023-02-01T00:12:40;102147.63;;;10.70;68.17
64739;BME280;51175;51.186;0.276;2023-02-01T00:13:10;102154.72;;;10.69;68.00
64739;BME280;51175;51.186;0.276;2023-02-01T00:13:41;102157.38;;;10.69;67.99
64739;BME280;51175;51.186;0.276;2023-02-01T00:14:12;102156.59;;;10.68;67.92
64739;BME280;51175;51.186;0.276;2023-02-01T00:14:43;102157.59;;;10.67;68.07
64739;BME280;51175;51.186;0.276;2023-02-01T00:15:14;102159.44;;;10.67;68.08
64739;BME280;51175;51.186;0.276;2023-02-01T00:15:44;102160.22;;;10.67;68.05
64739;BME280;51175;51.186;0.276;2023-02-01T00:16:17;102158.63;;;10.66;67.99
64739;BME280;51175;51.186;0.276;2023-02-01T00:16:48;102150.69;;;10.66;68.11
64739;BME280;51175;51.186;0.276;2023-02-01T00:17:18;102152.53;;;10.66;68.07
64739;BME280;51175;51.186;0.276;2023-02-01T00:17:58;102158.63;;;10.66;68.18
64739;BME280;51175;51.186;0.276;2023-02-01T00:18:28;102152.53;;;10.66;68.10
64739;BME280;51175;51.186;0.276;2023-02-01T00:19:03;102147.25;;;10.66;67.96
64739;BME280;51175;51.186;0.276;2023-02-01T00:19:34;102149.06;;;10.65;68.13
64739;BME280;51175;51.186;0.276;2023-02-01T00:20:05;102151.72;;;10.65;68.09
64739;BME280;51175;51.186;0.276;2023-02-01T00:20:35;102157.00;;;10.65;68.04
64739;BME280;51175;51.186;0.276;2023-02-01T00:21:06;102156.22;;;10.65;67.91
64739;BME280;51175;51.186;0.276;2023-02-01T00:21:36;102162.50;;;10.64;68.12
64739;BME280;51175;51.186;0.276;2023-02-01T00:22:07;102158.03;;;10.64;68.13
64739;BME280;51175;51.186;0.276;2023-02-01T00:22:37;102162.50;;;10.64;68.09
64739;BME280;51175;51.186;0.276;2023-02-01T00:23:08;102165.13;;;10.64;68.09
64739;BME280;51175;51.186;0.276;2023-02-01T00:23:40;102159.84;;;10.64;67.99
64739;BME280;51175;51.186;0.276;2023-02-01T00:24:10;102161.72;;;10.63;68.07
64739;BME280;51175;51.186;0.276;2023-02-01T00:24:41;102159.06;;;10.63;68.06
64739;BME280;51175;51.186;0.276;2023-02-01T00:25:11;102167.00;;;10.63;68.14
64739;BME280;51175;51.186;0.276;2023-02-01T00:25:42;102161.72;;;10.63;67.98
64739;BME280;51175;51.186;0.276;2023-02-01T00:26:40;102172.28;;;10.63;68.03
64739;BME280;51175;51.186;0.276;2023-02-01T00:27:10;102168.81;;;10.63;68.15
64739;BME280;51175;51.186;0.276;2023-02-01T00:27:41;102175.94;;;10.62;67.99
64739;BME280;51175;51.186;0.276;2023-02-01T00:28:11;102177.78;;;10.62;67.83
64739;BME280;51175;51.186;0.276;2023-02-01T00:28:43;102169.84;;;10.62;68.16
64739;BME280;51175;51.186;0.276;2023-02-01T00:29:18;102171.69;;;10.61;68.12
64739;BME280;51175;51.186;0.276;2023-02-01T00:29:49;102168.22;;;10.61;68.23
64739;BME280;51175;51.186;0.276;2023-02-01T00:30:19;102165.56;;;10.61;68.25
64739;BME280;51175;51.186;0.276;2023-02-01T00:30:56;102170.84;;;10.61;67.92
64739;BME280;51175;51.186;0.276;2023-02-01T00:31:27;102171.91;;;10.60;68.14
64739;BME280;51175;51.186;0.276;2023-02-01T00:31:58;102170.06;;;10.60;68.05
64739;BME280;51175;51.186;0.276;2023-02-01T00:32:28;102171.06;;;10.59;68.07
64739;BME280;51175;51.186;0.276;2023-02-01T00:32:58;102172.72;;;10.60;67.85
64739;BME280;51175;51.186;0.276;2023-02-01T00:33:30;102179.00;;;10.59;68.06
64739;BME280;51175;51.186;0.276;2023-02-01T00:34:01;102172.94;;;10.59;67.88
64739;BME280;51175;51.186;0.276;2023-02-01T00:34:32;102181.66;;;10.59;68.01
64739;BME280;51175;51.186;0.276;2023-02-01T00:35:02;102180.03;;;10.58;67.79
64739;BME280;51175;51.186;0.276;2023-02-01T00:35:34;102182.69;;;10.58;68.17
64739;BME280;51175;51.186;0.276;2023-02-01T00:36:07;102173.94;;;10.58;68.03
64739;BME280;51175;51.186;0.276;2023-02-01T00:36:38;102173.94;;;10.58;67.96
64739;BME280;51175;51.186;0.276;2023-02-01T00:37:08;102167.06;;;10.57;68.08
64739;BME280;51175;51.186;0.276;2023-02-01T00:37:39;102166.00;;;10.58;68.16
64739;BME280;51175;51.186;0.276;2023-02-01T00:38:09;102168.66;;;10.58;67.75
64739;BME280;51175;51.186;0.276;2023-02-01T00:38:40;102155.66;;;10.56;68.27
64739;BME280;51175;51.186;0.276;2023-02-01T00:39:11;102161.75;;;10.57;68.17
64739;BME280;51175;51.186;0.276;2023-02-01T00:39:41;102156.47;;;10.57;68.12
64739;BME280;51175;51.186;0.276;2023-02-01T00:40:12;102164.41;;;10.57;68.13
64739;BME280;51175;51.186;0.276;2023-02-01T00:40:42;102158.31;;;10.56;68.03
64739;BME280;51175;51.186;0.276;2023-02-01T00:41:17;102160.94;;;10.56;68.01
64739;BME280;51175;51.186;0.276;2023-02-01T00:41:48;102161.16;;;10.54;68.04
64739;BME280;51175;51.186;0.276;2023-02-01T00:42:18;102159.34;;;10.55;68.03
64739;BME280;51175;51.186;0.276;2023-02-01T00:42:49;102157.53;;;10.55;68.10
64739;BME280;51175;51.186;0.276;2023-02-01T00:43:19;102159.34;;;10.55;67.98
64739;BME280;51175;51.186;0.276;2023-02-01T00:43:50;102156.69;;;10.55;68.03
64739;BME280;51175;51.186;0.276;2023-02-01T00:44:21;102151.41;;;10.55;68.07
64739;BME280;51175;51.186;0.276;2023-02-01T00:44:51;102153.25;;;10.54;67.99
64739;BME280;51175;51.186;0.276;2023-02-01T00:45:21;102158.53;;;10.54;67.71
64739;BME280;51175;51.186;0.276;2023-02-01T00:45:52;102157.53;;;10.55;67.98
64739;BME280;51175;51.186;0.276;2023-02-01T00:46:22;102156.69;;;10.55;68.21
64739;BME280;51175;51.186;0.276;2023-02-01T00:46:53;102155.88;;;10.54;68.17
64739;BME280;51175;51.186;0.276;2023-02-01T00:47:23;102155.88;;;10.54;68.00
64739;BME280;51175;51.186;0.276;2023-02-01T00:47:53;102155.88;;;10.54;68.01
64739;BME280;51175;51.186;0.276;2023-02-01T00:48:24;102155.09;;;10.54;68.05
64739;BME280;51175;51.186;0.276;2023-02-01T00:48:55;102151.63;;;10.53;67.92
64739;BME280;51175;51.186;0.276;2023-02-01T00:49:25;102153.25;;;10.54;67.97
64739;BME280;51175;51.186;0.276;2023-02-01T00:49:56;102153.47;;;10.53;68.11
64739;BME280;51175;51.186;0.276;2023-02-01T00:50:26;102150.81;;;10.53;67.87
64739;BME280;51175;51.186;0.276;2023-02-01T00:51:00;102150.03;;;10.52;67.99
64739;BME280;51175;51.186;0.276;2023-02-01T00:51:31;102148.38;;;10.51;68.17
64739;BME280;51175;51.186;0.276;2023-02-01T00:52:01;102152.66;;;10.52;68.19
64739;BME280;51175;51.186;0.276;2023-02-01T00:52:32;102151.84;;;10.52;68.12
64739;BME280;51175;51.186;0.276;2023-02-01T00:53:03;102153.69;;;10.51;68.15
64739;BME280;51175;51.186;0.276;2023-02-01T00:53:34;102152.88;;;10.51;67.97
64739;BME280;51175;51.186;0.276;2023-02-01T00:54:05;102154.72;;;10.50;68.13
64739;BME280;51175;51.186;0.276;2023-02-01T00:54:35;102152.06;;;10.50;67.97
64739;BME280;51175;51.186;0.276;2023-02-01T00:55:07;102150.25;;;10.51;68.00
64739;BME280;51175;51.186;0.276;2023-02-01T00:55:38;102148.38;;;10.51;67.75
64739;BME280;51175;51.186;0.276;2023-02-01T00:56:09;102146.56;;;10.52;67.88
64739;BME280;51175;51.186;0.276;2023-02-01T00:56:39;102141.28;;;10.52;67.88
64739;BME280;51175;51.186;0.276;2023-02-01T00:57:09;102139.69;;;10.51;68.11
64739;BME280;51175;51.186;0.276;2023-02-01T00:57:40;102137.03;;;10.51;67.79
64739;BME280;51175;51.186;0.276;2023-02-01T00:58:10;102127.25;;;10.51;67.98
64739;BME280;51175;51.186;0.276;2023-02-01T00:58:40;102131.75;;;10.51;67.99
64739;BME280;51175;51.186;0.276;2023-02-01T00:59:11;102133.56;;;10.50;67.94
64739;BME280;51175;51.186;0.276;2023-02-01T00:59:43;102133.56;;;10.50;68.08
64739;BME280;51175;51.186;0.276;2023-02-01T01:00:14;102138.03;;;10.50;67.91
64739;BME280;51175;51.186;0.276;2023-02-01T01:00:44;102130.13;;;10.50;67.85
64739;BME280;51175;51.186;0.276;2023-02-01T01:01:18;102140.69;;;10.50;68.07
64739;BME280;51175;51.186;0.276;2023-02-01T01:01:48;102132.75;;;10.50;68.05
64739;BME280;51175;51.186;0.276;2023-02-01T01:02:19;102137.25;;;10.49;68.02
64739;BME280;51175;51.186;0.276;2023-02-01T01:02:49;102130.13;;;10.50;67.62
64739;BME280;51175;51.186;0.276;2023-02-01T01:03:19;102128.50;;;10.49;68.00
64739;BME280;51175;51.186;0.276;2023-02-01T01:03:55;102129.34;;;10.49;67.93
64739;BME280;51175;51.186;0.276;2023-02-01T01:04:26;102132.97;;;10.48;67.96
64739;BME280;51175;51.186;0.276;2023-02-01T01:04:56;102136.44;;;10.49;68.10
64739;BME280;51175;51.186;0.276;2023-02-01T01:05:27;102131.16;;;10.49;67.99
64739;BME280;51175;51.186;0.276;2023-02-01T01:06:02;102130.34;;;10.48;67.89
64739;BME280;51175;51.186;0.276;2023-02-01T01:06:33;102137.47;;;10.48;68.07
64739;BME280;51175;51.186;0.276;2023-02-01T01:07:04;102142.75;;;10.48;67.95
64739;BME280;51175;51.186;0.276;2023-02-01T01:07:34;102130.34;;;10.48;68.13
64739;BME280;51175;51.186;0.276;2023-02-01T01:08:05;102132.97;;;10.48;68.29
64739;BME280;51175;51.186;0.276;2023-02-01T01:08:35;102127.91;;;10.47;68.04
64739;BME280;51175;51.186;0.276;2023-02-01T01:09:07;102133.19;;;10.47;67.91
64739;BME280;51175;51.186;0.276;2023-02-01T01:09:37;102140.34;;;10.46;67.96
64739;BME280;51175;51.186;0.276;2023-02-01T01:10:08;102126.28;;;10.46;67.93
64739;BME280;51175;51.186;0.276;2023-02-01T01:10:39;102127.31;;;10.45;68.02
64739;BME280;51175;51.186;0.276;2023-02-01T01:11:12;102130.75;;;10.45;67.91
64739;BME280;51175;51.186;0.276;2023-02-01T01:11:43;102127.31;;;10.45;67.96
64739;BME280;51175;51.186;0.276;2023-02-01T01:12:13;102122.81;;;10.45;67.94
64739;BME280;51175;51.186;0.276;2023-02-01T01:12:43;102124.66;;;10.45;68.19
64739;BME280;51175;51.186;0.276;2023-02-01T01:13:14;102126.50;;;10.44;67.86
64739;BME280;51175;51.186;0.276;2023-02-01T01:13:49;102123.03;;;10.43;68.21
64739;BME280;51175;51.186;0.276;2023-02-01T01:14:19;102124.66;;;10.45;68.00
64739;BME280;51175;51.186;0.276;2023-02-01T01:14:50;102123.03;;;10.43;67.96
64739;BME280;51175;51.186;0.276;2023-02-01T01:15:20;102116.97;;;10.43;68.03
64739;BME280;51175;51.186;0.276;2023-02-01T01:15:50;102119.59;;;10.43;68.01
64739;BME280;51175;51.186;0.276;2023-02-01T01:16:23;102124.88;;;10.43;68.00
64739;BME280;51175;51.186;0.276;2023-02-01T01:16:53;102119.59;;;10.43;68.03
64739;BME280;51175;51.186;0.276;2023-02-01T01:17:24;102116.97;;;10.43;68.02
64739;BME280;51175;51.186;0.276;2023-02-01T01:17:54;102124.06;;;10.42;68.14
64739;BME280;51175;51.186;0.276;2023-02-01T01:18:24;102122.25;;;10.43;67.79
64739;BME280;51175;51.186;0.276;2023-02-01T01:18:56;102118.78;;;10.42;68.04
64739;BME280;51175;51.186;0.276;2023-02-01T01:19:26;102116.97;;;10.43;67.91
64739;BME280;51175;51.186;0.276;2023-02-01T01:19:57;102117.97;;;10.42;67.96
64739;BME280;51175;51.186;0.276;2023-02-01T01:20:27;102117.97;;;10.42;67.88
64739;BME280;51175;51.186;0.276;2023-02-01T01:20:58;102119.00;;;10.41;68.09
64739;BME280;51175;51.186;0.276;2023-02-01T01:21:29;102117.19;;;10.41;68.14
64739;BME280;51175;51.186;0.276;2023-02-01T01:22:00;102121.66;;;10.41;68.12
64739;BME280;51175;51.186;0.276;2023-02-01T01:22:30;102113.72;;;10.41;68.09
64739;BME280;51175;51.186;0.276;2023-02-01T01:23:01;102115.56;;;10.40;68.05
64739;BME280;51175;51.186;0.276;2023-02-01T01:23:31;102118.19;;;10.40;67.84
64739;BME280;51175;51.186;0.276;2023-02-01T01:24:02;102115.56;;;10.40;68.12
64739;BME280;51175;51.186;0.276;2023-02-01T01:24:33;102118.19;;;10.40;67.97
64739;BME280;51175;51.186;0.276;2023-02-01T01:25:04;102113.94;;;10.39;68.05
64739;BME280;51175;51.186;0.276;2023-02-01T01:25:38;102127.97;;;10.40;67.93
64739;BME280;51175;51.186;0.276;2023-02-01T01:26:20;102128.97;;;10.39;68.06
64739;BME280;51175;51.186;0.276;2023-02-01T01:26:50;102121.06;;;10.39;67.92
64739;BME280;51175;51.186;0.276;2023-02-01T01:27:21;102127.16;;;10.39;68.04
64739;BME280;51175;51.186;0.276;2023-02-01T01:27:54;102128.97;;;10.39;68.04
64739;BME280;51175;51.186;0.276;2023-02-01T01:28:24;102127.38;;;10.38;68.02
64739;BME280;51175;51.186;0.276;2023-02-01T01:28:56;102135.28;;;10.38;68.13
64739;BME280;51175;51.186;0.276;2023-02-01T01:29:26;102128.97;;;10.39;67.94
64739;BME280;51175;51.186;0.276;2023-02-01T01:29:57;102132.88;;;10.36;68.05
64739;BME280;51175;51.186;0.276;2023-02-01T01:30:27;102132.66;;;10.38;68.01
64739;BME280;51175;51.186;0.276;2023-02-01T01:30:58;102130.81;;;10.38;67.95
64739;BME280;51175;51.186;0.276;2023-02-01T01:31:28;102125.75;;;10.37;68.09
64739;BME280;51175;51.186;0.276;2023-02-01T01:31:58;102131.84;;;10.37;68.00
64739;BME280;51175;51.186;0.276;2023-02-01T01:32:29;102128.41;;;10.37;68.08
64739;BME280;51175;51.186;0.276;2023-02-01T01:32:59;102127.59;;;10.36;67.92
64739;BME280;51175;51.186;0.276;2023-02-01T01:33:30;102128.41;;;10.37;68.12
64739;BME280;51175;51.186;0.276;2023-02-01T01:34:00;102126.75;;;10.36;68.17
64739;BME280;51175;51.186;0.276;2023-02-01T01:34:31;102132.88;;;10.36;68.08
64739;BME280;51175;51.186;0.276;2023-02-01T01:35:01;102132.03;;;10.36;68.00
64739;BME280;51175;51.186;0.276;2023-02-01T01:35:32;102123.34;;;10.35;68.06
64739;BME280;51175;51.186;0.276;2023-02-01T01:36:08;102125.97;;;10.35;67.96
64739;BME280;51175;51.186;0.276;2023-02-01T01:36:41;102126.97;;;10.34;68.23
64739;BME280;51175;51.186;0.276;2023-02-01T01:37:11;102125.97;;;10.35;68.09
64739;BME280;51175;51.186;0.276;2023-02-01T01:37:42;102121.69;;;10.34;68.08
64739;BME280;51175;51.186;0.276;2023-02-01T01:38:12;102123.34;;;10.35;68.04
64739;BME280;51175;51.186;0.276;2023-02-01T01:38:43;102116.41;;;10.34;68.39
64739;BME280;51175;51.186;0.276;2023-02-01T01:39:13;102113.78;;;10.34;68.04
64739;BME280;51175;51.186;0.276;2023-02-01T01:39:44;102115.63;;;10.34;68.15
64739;BME280;51175;51.186;0.276;2023-02-01T01:40:14;102116.41;;;10.34;68.01
64739;BME280;51175;51.186;0.276;2023-02-01T01:40:46;102114.81;;;10.33;68.08
64739;BME280;51175;51.186;0.276;2023-02-01T01:41:19;102110.34;;;10.34;67.88
64739;BME280;51175;51.186;0.276;2023-02-01T01:41:49;102117.47;;;10.33;67.97
64739;BME280;51175;51.186;0.276;2023-02-01T01:42:20;102116.63;;;10.33;68.13
64739;BME280;51175;51.186;0.276;2023-02-01T01:42:50;102108.72;;;10.33;68.09
64739;BME280;51175;51.186;0.276;2023-02-01T01:43:23;102107.91;;;10.32;67.94
64739;BME280;51175;51.186;0.276;2023-02-01T01:44:05;102109.53;;;10.33;68.01
64739;BME280;51175;51.186;0.276;2023-02-01T01:45:32;102111.34;;;10.33;68.14
64739;BME280;51175;51.186;0.276;2023-02-01T01:46:02;102109.75;;;10.31;67.89
64739;BME280;51175;51.186;0.276;2023-02-01T01:46:37;102102.84;;;10.30;67.88
64739;BME280;51175;51.186;0.276;2023-02-01T01:47:08;102102.84;;;10.30;68.09
64739;BME280;51175;51.186;0.276;2023-02-01T01:47:43;102106.50;;;10.29;68.00
64739;BME280;51175;51.186;0.276;2023-02-01T01:48:23;102108.34;;;10.29;68.05
64739;BME280;51175;51.186;0.276;2023-02-01T01:49:17;102107.31;;;10.30;68.01
64739;BME280;51175;51.186;0.276;2023-02-01T01:49:46;102104.91;;;10.28;68.03
64739;BME280;51175;51.186;0.276;2023-02-01T01:50:21;102105.91;;;10.27;67.96
64739;BME280;51175;51.186;0.276;2023-02-01T01:51:02;102095.34;;;10.27;67.91
64739;BME280;51175;51.186;0.276;2023-02-01T01:51:42;102100.63;;;10.27;68.18
64739;BME280;51175;51.186;0.276;2023-02-01T01:52:14;102101.66;;;10.26;68.11
64739;BME280;51175;51.186;0.276;2023-02-01T01:52:46;102101.66;;;10.26;68.19
64739;BME280;51175;51.186;0.276;2023-02-01T01:53:22;102096.59;;;10.25;68.30
64739;BME280;51175;51.186;0.276;2023-02-01T01:54:15;102100.06;;;10.25;68.25
64739;BME280;51175;51.186;0.276;2023-02-01T01:54:48;102101.88;;;10.25;68.21
64739;BME280;51175;51.186;0.276;2023-02-01T01:55:22;102092.34;;;10.24;68.13
64739;BME280;51175;51.186;0.276;2023-02-01T01:55:55;102108.19;;;10.24;68.31
64739;BME280;51175;51.186;0.276;2023-02-01T01:56:27;102096.81;;;10.23;68.25
64739;BME280;51175;51.186;0.276;2023-02-01T01:57:03;102097.63;;;10.24;68.22
64739;BME280;51175;51.186;0.276;2023-02-01T01:57:38;102100.28;;;10.24;68.36
64739;BME280;51175;51.186;0.276;2023-02-01T01:58:12;102103.13;;;10.22;68.12
64739;BME280;51175;51.186;0.276;2023-02-01T01:58:44;102109.19;;;10.23;68.24
64739;BME280;51175;51.186;0.276;2023-02-01T01:59:15;102103.91;;;10.23;68.13
64739;BME280;51175;51.186;0.276;2023-02-01T01:59:48;102103.13;;;10.22;68.16
64739;BME280;51175;51.186;0.276;2023-02-01T02:00:20;102108.41;;;10.22;68.11
64739;BME280;51175;51.186;0.276;2023-02-01T02:00:52;102111.84;;;10.23;68.19
64739;BME280;51175;51.186;0.276;2023-02-01T02:01:23;102107.59;;;10.22;68.31
64739;BME280;51175;51.186;0.276;2023-02-01T02:01:55;102107.38;;;10.23;68.33
64739;BME280;51175;51.186;0.276;2023-02-01T02:02:25;102104.97;;;10.22;68.25
64739;BME280;51175;51.186;0.276;2023-02-01T02:02:59;102107.59;;;10.22;68.43
64739;BME280;51175;51.186;0.276;2023-02-01T02:03:44;102108.41;;;10.22;68.29
64739;BME280;51175;51.186;0.276;2023-02-01T02:04:16;102107.59;;;10.22;68.36
64739;BME280;51175;51.186;0.276;2023-02-01T02:04:47;102112.88;;;10.22;68.26
64739;BME280;51175;51.186;0.276;2023-02-01T02:05:18;102113.91;;;10.21;68.11
64739;BME280;51175;51.186;0.276;2023-02-01T02:05:50;102111.28;;;10.21;68.23
64739;BME280;51175;51.186;0.276;2023-02-01T02:06:35;102112.88;;;10.22;68.21
64739;BME280;51175;51.186;0.276;2023-02-01T02:07:14;102113.91;;;10.21;68.19
64739;BME280;51175;51.186;0.276;2023-02-01T02:07:48;102119.19;;;10.21;68.13
64739;BME280;51175;51.186;0.276;2023-02-01T02:08:19;102116.56;;;10.21;68.14
64739;BME280;51175;51.186;0.276;2023-02-01T02:08:50;102113.91;;;10.21;68.21
64739;BME280;51175;51.186;0.276;2023-02-01T02:09:21;102118.38;;;10.20;68.17
64739;BME280;51175;51.186;0.276;2023-02-01T02:09:52;102106.00;;;10.21;68.24
64739;BME280;51175;51.186;0.276;2023-02-01T02:10:23;102110.47;;;10.20;68.08
64739;BME280;51175;51.186;0.276;2023-02-01T02:11:16;102110.47;;;10.20;68.21
64739;BME280;51175;51.186;0.276;2023-02-01T02:11:46;102107.00;;;10.19;68.25
64739;BME280;51175;51.186;0.276;2023-02-01T02:12:17;102109.84;;;10.18;68.12
64739;BME280;51175;51.186;0.276;2023-02-01T02:12:48;102104.56;;;10.18;68.23
64739;BME280;51175;51.186;0.276;2023-02-01T02:13:19;102105.38;;;10.18;68.13
64739;BME280;51175;51.186;0.276;2023-02-01T02:13:52;102104.56;;;10.18;68.04
64739;BME280;51175;51.186;0.276;2023-02-01T02:14:24;102105.38;;;10.18;68.21
64739;BME280;51175;51.186;0.276;2023-02-01T02:14:55;102102.75;;;10.18;68.22
64739;BME280;51175;51.186;0.276;2023-02-01T02:15:26;102094.00;;;10.18;68.22
64739;BME280;51175;51.186;0.276;2023-02-01T02:18:15;102096.88;;;10.16;68.24
64739;BME280;51175;51.186;0.276;2023-02-01T02:21:07;102102.38;;;10.15;68.21
64739;BME280;51175;51.186;0.276;2023-02-01T02:27:38;102104.25;;;10.08;68.42
64739;BME280;51175;51.186;0.276;2023-02-01T02:31:06;102108.94;;;10.05;68.54
64739;BME280;51175;51.186;0.276;2023-02-01T02:35:49;102101.47;;;10.02;68.70
64739;BME280;51175;51.186;0.276;2023-02-01T02:36:34;102100.44;;;10.03;68.36
64739;BME280;51175;51.186;0.276;2023-02-01T02:39:49;102096.19;;;10.02;68.44
64739;BME280;51175;51.186;0.276;2023-02-01T02:43:46;102082.59;;;9.99;68.51
64739;BME280;51175;51.186;0.276;2023-02-01T02:45:04;102091.53;;;9.98;68.62
64739;BME280;51175;51.186;0.276;2023-02-01T02:47:04;102091.75;;;9.96;68.64
64739;BME280;51175;51.186;0.276;2023-02-01T02:50:44;102098.28;;;9.93;68.77
64739;BME280;51175;51.186;0.276;2023-02-01T02:51:41;102095.88;;;9.92;68.52
64739;BME280;51175;51.186;0.276;2023-02-01T02:52:32;102092.41;;;9.91;68.76
64739;BME280;51175;51.186;0.276;2023-02-01T02:53:28;102091.59;;;9.91;68.69
64739;BME280;51175;51.186;0.276;2023-02-01T02:54:23;102093.22;;;9.92;68.75
64739;BME280;51175;51.186;0.276;2023-02-01T02:55:13;102094.22;;;9.91;68.87
64739;BME280;51175;51.186;0.276;2023-02-01T02:55:45;102094.22;;;9.91;68.62
64739;BME280;51175;51.186;0.276;2023-02-01T02:56:16;102095.25;;;9.90;68.67
64739;BME280;51175;51.186;0.276;2023-02-01T02:57:10;102095.25;;;9.90;68.82
64739;BME280;51175;51.186;0.276;2023-02-01T02:58:02;102099.50;;;9.91;68.83
64739;BME280;51175;51.186;0.276;2023-02-01T02:58:53;102094.44;;;9.89;68.68
64739;BME280;51175;51.186;0.276;2023-02-01T02:59:44;102091.81;;;9.89;68.64
64739;BME280;51175;51.186;0.276;2023-02-01T03:00:35;102099.72;;;9.89;68.61
64739;BME280;51175;51.186;0.276;2023-02-01T03:01:25;102087.56;;;9.88;68.61
64739;BME280;51175;51.186;0.276;2023-02-01T03:02:14;102087.56;;;9.88;68.84
64739;BME280;51175;51.186;0.276;2023-02-01T03:03:05;102084.94;;;9.88;68.68
64739;BME280;51175;51.186;0.276;2023-02-01T03:03:54;102090.19;;;9.88;68.83
64739;BME280;51175;51.186;0.276;2023-02-01T03:04:38;102080.69;;;9.87;68.69
64739;BME280;51175;51.186;0.276;2023-02-01T03:05:10;102075.41;;;9.87;68.75
64739;BME280;51175;51.186;0.276;2023-02-01T03:05:45;102086.75;;;9.88;68.70
64739;BME280;51175;51.186;0.276;2023-02-01T03:06:18;102074.59;;;9.87;68.85
64739;BME280;51175;51.186;0.276;2023-02-01T03:06:49;102078.03;;;9.87;68.76
64739;BME280;51175;51.186;0.276;2023-02-01T03:08:47;102074.38;;;9.88;68.81
64739;BME280;51175;51.186;0.276;2023-02-01T03:09:24;102084.94;;;9.88;68.77
64739;BME280;51175;51.186;0.276;2023-02-01T03:09:58;102079.66;;;9.88;68.77
64739;BME280;51175;51.186;0.276;2023-02-01T03:11:20;102078.59;;;9.89;68.63
64739;BME280;51175;51.186;0.276;2023-02-01T03:11:56;102083.88;;;9.89;68.68
64739;BME280;51175;51.186;0.276;2023-02-01T03:12:49;102081.03;;;9.91;68.70
64739;BME280;51175;51.186;0.276;2023-02-01T03:14:12;102083.69;;;9.91;68.59
64739;BME280;51175;51.186;0.276;2023-02-01T03:14:47;102080.47;;;9.89;68.79
64739;BME280;51175;51.186;0.276;2023-02-01T03:15:23;102070.69;;;9.89;68.78
64739;BME280;51175;51.186;0.276;2023-02-01T03:15:58;102080.47;;;9.89;68.82
64739;BME280;51175;51.186;0.276;2023-02-01T03:17:15;102079.44;;;9.90;68.76
64739;BME280;51175;51.186;0.276;2023-02-01T03:17:47;102084.50;;;9.91;68.66
64739;BME280;51175;51.186;0.276;2023-02-01T03:18:55;102092.41;;;9.91;68.53
64739;BME280;51175;51.186;0.276;2023-02-01T03:19:34;102083.88;;;9.89;68.59
64739;BME280;51175;51.186;0.276;2023-02-01T03:20:07;102088.38;;;9.89;68.48
64739;BME280;51175;51.186;0.276;2023-02-01T03:20:43;102090.81;;;9.90;68.66
64739;BME280;51175;51.186;0.276;2023-02-01T03:21:22;102085.53;;;9.90;68.64
64739;BME280;51175;51.186;0.276;2023-02-01T03:22:14;102086.53;;;9.89;68.63
64739;BME280;51175;51.186;0.276;2023-02-01T03:22:46;102089.16;;;9.89;68.60
64739;BME280;51175;51.186;0.276;2023-02-01T03:23:22;102091.03;;;9.89;68.67
64739;BME280;51175;51.186;0.276;2023-02-01T03:23:57;102091.81;;;9.89;68.57
64739;BME280;51175;51.186;0.276;2023-02-01T03:24:40;102091.81;;;9.89;68.67
64739;BME280;51175;51.186;0.276;2023-02-01T03:25:15;102083.88;;;9.89;68.65
64739;BME280;51175;51.186;0.276;2023-02-01T03:25:50;102089.16;;;9.89;68.45
64739;BME280;51175;51.186;0.276;2023-02-01T03:26:25;102085.75;;;9.89;68.78
64739;BME280;51175;51.186;0.276;2023-02-01T03:27:05;102095.25;;;9.90;68.69
64739;BME280;51175;51.186;0.276;2023-02-01T03:28:02;102097.69;;;9.91;68.51
64739;BME280;51175;51.186;0.276;2023-02-01T03:28:34;102094.44;;;9.89;68.45
64739;BME280;51175;51.186;0.276;2023-02-01T03:29:16;102099.72;;;9.89;68.55
64739;BME280;51175;51.186;0.276;2023-02-01T03:29:51;102103.19;;;9.90;68.67